AUI863 BIKF-UKBB
Flight info
| Callsign | AUI863 |
|---|---|
| Flight time | 3h 57m |
| Altitude | 23000 |
| Route | LUTER3D LUTER DCT MIKLA Y194 ING/M081F370 DCT 6310N/M081F390 DCT H6206 DCT VALDI/N0469F390 L621 ERNOV DCT ROE DCT AMROR N983 POLON M70 TOLPA/K0874F390 M70 SLV |
| Aircraft | A343/H-SDE2E3FGHIJ4J5M1RWXY/LB1D1 |
Departure
| Time | 2025-10-08 16:24 |
|---|---|
| Airport | Keflavik International Airport (BIKF) |
Arrival
| Time | 2025-10-08 20:22 |
|---|---|
| Airport | Boryspil International Airport (UKBB) |
| Time | Latitude | Longitude | Altitude | Speed | Heading |
|---|---|---|---|---|---|
| 2025-10-08 15:10 | 63.99271 | -22.62452 | 110 ft | 0 kts | 360° |
| 2025-10-08 16:06 | 63.99193 | -22.62458 | 144 ft | 3 kts | 32° |
| 2025-10-08 16:07 | 63.99174 | -22.62529 | 144 ft | 3 kts | 82° |
| 2025-10-08 16:08 | 63.99172 | -22.62582 | 144 ft | 0 kts | 90° |
| 2025-10-08 16:11 | 63.99173 | -22.62290 | 144 ft | 9 kts | 90° |
| 2025-10-08 16:15 | 63.99119 | -22.59810 | 173 ft | 8 kts | 143° |
| 2025-10-08 16:15 | 63.98804 | -22.59340 | 174 ft | 22 kts | 163° |
| 2025-10-08 16:16 | 63.98629 | -22.59294 | 178 ft | 0 kts | 180° |
| 2025-10-08 16:20 | 63.98513 | -22.59335 | 181 ft | 3 kts | 240° |
| 2025-10-08 16:20 | 63.98504 | -22.59477 | 181 ft | 3 kts | 268° |
| 2025-10-08 16:23 | 63.98503 | -22.59756 | 181 ft | 46 kts | 270° |
| 2025-10-08 16:23 | 63.98536 | -22.64654 | 1409 ft | 117 kts | 266° |
| 2025-10-08 16:24 | 63.98512 | -22.68939 | 2403 ft | 147 kts | 266° |
| 2025-10-08 16:24 | 63.98912 | -22.74023 | 3393 ft | 192 kts | 291° |
| 2025-10-08 16:25 | 63.99908 | -22.76315 | 4150 ft | 222 kts | 318° |
| 2025-10-08 16:25 | 64.03285 | -22.75341 | 5945 ft | 298 kts | 27° |
| 2025-10-08 16:26 | 64.05017 | -22.66334 | 7520 ft | 335 kts | 93° |
| 2025-10-08 16:26 | 64.04649 | -22.55680 | 9153 ft | 339 kts | 92° |
| 2025-10-08 16:27 | 64.04739 | -22.44610 | 10058 ft | 365 kts | 86° |
| 2025-10-08 16:27 | 64.05379 | -22.26034 | 10817 ft | 416 kts | 84° |
| 2025-10-08 16:28 | 64.05904 | -22.12594 | 11773 ft | 432 kts | 84° |
| 2025-10-08 16:28 | 64.06443 | -21.98723 | 12910 ft | 444 kts | 85° |
| 2025-10-08 16:29 | 64.06715 | -21.91640 | 13453 ft | 450 kts | 85° |
| 2025-10-08 16:29 | 64.07258 | -21.77227 | 14486 ft | 461 kts | 85° |
| 2025-10-08 16:30 | 64.07798 | -21.62457 | 15566 ft | 471 kts | 85° |
| 2025-10-08 16:30 | 64.08335 | -21.47355 | 16619 ft | 482 kts | 85° |
| 2025-10-08 16:31 | 64.08867 | -21.31917 | 17673 ft | 492 kts | 85° |
| 2025-10-08 16:31 | 64.09649 | -21.08348 | 19103 ft | 503 kts | 85° |
| 2025-10-08 16:32 | 64.10162 | -20.92230 | 19863 ft | 514 kts | 85° |
| 2025-10-08 16:32 | 64.10665 | -20.75830 | 20904 ft | 519 kts | 86° |
| 2025-10-08 16:33 | 64.10911 | -20.67564 | 21361 ft | 522 kts | 86° |
| 2025-10-08 16:33 | 64.11394 | -20.50884 | 22253 ft | 529 kts | 86° |
| 2025-10-08 16:34 | 64.11529 | -20.33967 | 23081 ft | 534 kts | 98° |
| 2025-10-08 16:34 | 64.09579 | -20.08792 | 24160 ft | 539 kts | 105° |
| 2025-10-08 16:35 | 64.07980 | -19.91952 | 24907 ft | 544 kts | 106° |
| 2025-10-08 16:36 | 64.03218 | -19.40616 | 26783 ft | 559 kts | 105° |
| 2025-10-08 16:38 | 63.96461 | -18.70162 | 29058 ft | 572 kts | 107° |
| 2025-10-08 16:40 | 63.89347 | -17.99970 | 31593 ft | 566 kts | 108° |
| 2025-10-08 16:42 | 63.83510 | -17.29508 | 33477 ft | 569 kts | 99° |
| 2025-10-08 16:45 | 63.79088 | -16.50740 | 35474 ft | 555 kts | 105° |
| 2025-10-08 16:46 | 63.73249 | -15.91450 | 36378 ft | 552 kts | 106° |
| 2025-10-08 16:48 | 63.66350 | -15.24445 | 36398 ft | 546 kts | 107° |
| 2025-10-08 16:50 | 63.59172 | -14.58074 | 36403 ft | 548 kts | 108° |
| 2025-10-08 16:52 | 63.51647 | -13.91677 | 36415 ft | 550 kts | 108° |
| 2025-10-08 16:54 | 63.43815 | -13.25631 | 36414 ft | 549 kts | 109° |
| 2025-10-08 16:57 | 63.34958 | -12.54244 | 36415 ft | 551 kts | 110° |
| 2025-10-08 16:58 | 63.27554 | -11.96972 | 36500 ft | 549 kts | 111° |
| 2025-10-08 17:00 | 63.18879 | -11.32380 | 37723 ft | 543 kts | 111° |
| 2025-10-08 17:02 | 63.09990 | -10.68734 | 38448 ft | 541 kts | 112° |
| 2025-10-08 17:05 | 62.99753 | -9.98038 | 38481 ft | 539 kts | 110° |
| 2025-10-08 17:06 | 62.93550 | -9.41869 | 38492 ft | 540 kts | 108° |
| 2025-10-08 17:09 | 62.85219 | -8.70271 | 38484 ft | 537 kts | 108° |
| 2025-10-08 17:10 | 62.78520 | -8.15113 | 38507 ft | 536 kts | 108° |
| 2025-10-08 17:12 | 62.70601 | -7.52376 | 38523 ft | 536 kts | 109° |
| 2025-10-08 17:14 | 62.62457 | -6.90382 | 38539 ft | 532 kts | 109° |
| 2025-10-08 17:16 | 62.54070 | -6.28937 | 38543 ft | 530 kts | 109° |
| 2025-10-08 17:18 | 62.44322 | -5.69000 | 38556 ft | 527 kts | 116° |
| 2025-10-08 17:20 | 62.33170 | -5.10727 | 38573 ft | 526 kts | 115° |
| 2025-10-08 17:22 | 62.21853 | -4.52887 | 38591 ft | 525 kts | 116° |
| 2025-10-08 17:24 | 62.10319 | -3.95602 | 38623 ft | 526 kts | 116° |
| 2025-10-08 17:26 | 61.98536 | -3.38680 | 38644 ft | 525 kts | 116° |
| 2025-10-08 17:28 | 61.86513 | -2.82185 | 38663 ft | 525 kts | 116° |
| 2025-10-08 17:30 | 61.74287 | -2.26228 | 38683 ft | 525 kts | 117° |
| 2025-10-08 17:32 | 61.61818 | -1.70658 | 38699 ft | 524 kts | 117° |
| 2025-10-08 17:34 | 61.49165 | -1.15705 | 38722 ft | 523 kts | 117° |
| 2025-10-08 17:36 | 61.36288 | -0.61186 | 38749 ft | 523 kts | 118° |
| 2025-10-08 17:38 | 61.23196 | -0.07120 | 38767 ft | 523 kts | 118° |
| 2025-10-08 17:40 | 61.06249 | 0.41159 | 38800 ft | 519 kts | 130° |
| 2025-10-08 17:42 | 60.88533 | 0.88190 | 38826 ft | 518 kts | 130° |
| 2025-10-08 17:44 | 60.70736 | 1.34505 | 38847 ft | 518 kts | 130° |
| 2025-10-08 17:46 | 60.52760 | 1.80364 | 38875 ft | 518 kts | 131° |
| 2025-10-08 17:48 | 60.36934 | 2.19997 | 38911 ft | 518 kts | 131° |
| 2025-10-08 17:50 | 60.16377 | 2.70483 | 38943 ft | 518 kts | 131° |
| 2025-10-08 17:52 | 59.98709 | 3.13008 | 38955 ft | 518 kts | 131° |
| 2025-10-08 17:54 | 59.80156 | 3.56834 | 38974 ft | 517 kts | 131° |
| 2025-10-08 17:56 | 59.61523 | 4.00083 | 38996 ft | 516 kts | 129° |
| 2025-10-08 17:58 | 59.44584 | 4.45743 | 39018 ft | 516 kts | 127° |
| 2025-10-08 18:00 | 59.27588 | 4.91101 | 39046 ft | 517 kts | 127° |
| 2025-10-08 18:02 | 59.10392 | 5.36119 | 39052 ft | 517 kts | 128° |
| 2025-10-08 18:04 | 58.93061 | 5.80627 | 39075 ft | 517 kts | 128° |
| 2025-10-08 18:06 | 58.75582 | 6.24765 | 39089 ft | 517 kts | 128° |
| 2025-10-08 18:08 | 58.57847 | 6.68557 | 39089 ft | 522 kts | 129° |
| 2025-10-08 18:10 | 58.39910 | 7.12139 | 39080 ft | 521 kts | 130° |
| 2025-10-08 18:12 | 58.21841 | 7.55214 | 39074 ft | 517 kts | 130° |
| 2025-10-08 18:14 | 58.06108 | 7.92101 | 39070 ft | 515 kts | 130° |
| 2025-10-08 18:16 | 57.85769 | 8.38950 | 39076 ft | 512 kts | 131° |
| 2025-10-08 18:18 | 57.70297 | 8.75533 | 39076 ft | 511 kts | 127° |
| 2025-10-08 18:20 | 57.51739 | 9.24041 | 39084 ft | 510 kts | 127° |
| 2025-10-08 18:22 | 57.35107 | 9.66658 | 39088 ft | 509 kts | 128° |
| 2025-10-08 18:24 | 57.18439 | 10.08627 | 39095 ft | 506 kts | 128° |
| 2025-10-08 18:26 | 57.03767 | 10.44975 | 39085 ft | 505 kts | 128° |
| 2025-10-08 18:28 | 56.84797 | 10.91169 | 39096 ft | 505 kts | 129° |
| 2025-10-08 18:30 | 56.67769 | 11.31896 | 39100 ft | 505 kts | 129° |
| 2025-10-08 18:32 | 56.50441 | 11.71967 | 39100 ft | 503 kts | 131° |
| 2025-10-08 18:34 | 56.34991 | 12.06235 | 39103 ft | 503 kts | 131° |
| 2025-10-08 18:36 | 56.15027 | 12.49920 | 39108 ft | 502 kts | 131° |
| 2025-10-08 18:38 | 55.99434 | 12.83495 | 39116 ft | 501 kts | 132° |
| 2025-10-08 18:40 | 55.79247 | 13.26280 | 39113 ft | 501 kts | 132° |
| 2025-10-08 18:42 | 55.64210 | 13.57662 | 39108 ft | 500 kts | 133° |
| 2025-10-08 18:44 | 55.43842 | 13.99530 | 39102 ft | 500 kts | 133° |
| 2025-10-08 18:46 | 55.27902 | 14.31798 | 39096 ft | 499 kts | 133° |
| 2025-10-08 18:48 | 55.07319 | 14.72833 | 39103 ft | 499 kts | 134° |
| 2025-10-08 18:50 | 54.91191 | 15.04506 | 39100 ft | 498 kts | 134° |
| 2025-10-08 18:52 | 54.72646 | 15.47920 | 39097 ft | 502 kts | 123° |
| 2025-10-08 18:54 | 54.59833 | 15.83911 | 39099 ft | 502 kts | 123° |
| 2025-10-08 18:56 | 54.43166 | 16.29783 | 39100 ft | 502 kts | 124° |
| 2025-10-08 18:58 | 54.28206 | 16.70249 | 39108 ft | 503 kts | 124° |
| 2025-10-08 19:00 | 54.13101 | 17.10448 | 39113 ft | 503 kts | 124° |
| 2025-10-08 19:02 | 53.97900 | 17.50261 | 39106 ft | 501 kts | 124° |
| 2025-10-08 19:05 | 53.80680 | 17.94605 | 39116 ft | 501 kts | 124° |
| 2025-10-08 19:06 | 53.67185 | 18.28818 | 39121 ft | 499 kts | 124° |
| 2025-10-08 19:09 | 53.49731 | 18.72384 | 39135 ft | 499 kts | 124° |
| 2025-10-08 19:10 | 53.38015 | 19.01212 | 39137 ft | 496 kts | 124° |
| 2025-10-08 19:12 | 53.20461 | 19.43797 | 39134 ft | 495 kts | 124° |
| 2025-10-08 19:14 | 53.06694 | 19.76699 | 39130 ft | 495 kts | 124° |
| 2025-10-08 19:16 | 52.88881 | 20.18649 | 39151 ft | 494 kts | 125° |
| 2025-10-08 19:18 | 52.72921 | 20.55655 | 39140 ft | 494 kts | 125° |
| 2025-10-08 19:20 | 52.56823 | 20.92444 | 39167 ft | 495 kts | 125° |
| 2025-10-08 19:22 | 52.40638 | 21.28906 | 39143 ft | 495 kts | 125° |
| 2025-10-08 19:24 | 52.24350 | 21.65078 | 39138 ft | 494 kts | 125° |
| 2025-10-08 19:26 | 52.07959 | 22.00974 | 39135 ft | 493 kts | 125° |
| 2025-10-08 19:28 | 51.94255 | 22.30601 | 39138 ft | 492 kts | 126° |
| 2025-10-08 19:30 | 51.75653 | 22.70281 | 39135 ft | 492 kts | 126° |
| 2025-10-08 19:32 | 51.59036 | 23.05216 | 39130 ft | 491 kts | 126° |
| 2025-10-08 19:34 | 51.42315 | 23.39900 | 39126 ft | 490 kts | 126° |
| 2025-10-08 19:36 | 51.28356 | 23.76598 | 39127 ft | 483 kts | 101° |
| 2025-10-08 19:38 | 51.22458 | 24.18327 | 39125 ft | 483 kts | 101° |
| 2025-10-08 19:40 | 51.16197 | 24.59945 | 39126 ft | 483 kts | 101° |
| 2025-10-08 19:42 | 51.10600 | 24.96306 | 39129 ft | 483 kts | 102° |
| 2025-10-08 19:44 | 51.04085 | 25.37625 | 39118 ft | 482 kts | 102° |
| 2025-10-08 19:46 | 50.96589 | 25.83928 | 39115 ft | 481 kts | 103° |
| 2025-10-08 19:48 | 50.89806 | 26.24758 | 39101 ft | 478 kts | 103° |
| 2025-10-08 19:50 | 50.82883 | 26.65458 | 39087 ft | 479 kts | 104° |
| 2025-10-08 19:52 | 50.75809 | 27.06093 | 39072 ft | 480 kts | 105° |
| 2025-10-08 19:54 | 50.68595 | 27.46556 | 39065 ft | 477 kts | 107° |
| 2025-10-08 19:56 | 50.61304 | 27.86406 | 39053 ft | 472 kts | 107° |
| 2025-10-08 19:58 | 50.54850 | 28.20991 | 39043 ft | 467 kts | 107° |
| 2025-10-08 20:00 | 50.46576 | 28.64412 | 37457 ft | 456 kts | 108° |
| 2025-10-08 20:02 | 50.39773 | 28.97533 | 32848 ft | 467 kts | 102° |
| 2025-10-08 20:04 | 50.33863 | 29.42272 | 23732 ft | 448 kts | 102° |
| 2025-10-08 20:05 | 50.32592 | 29.51722 | 22378 ft | 429 kts | 102° |
| 2025-10-08 20:05 | 50.31394 | 29.60585 | 21796 ft | 411 kts | 102° |
| 2025-10-08 20:06 | 50.30792 | 29.64995 | 20876 ft | 418 kts | 102° |
| 2025-10-08 20:06 | 50.29574 | 29.73888 | 19526 ft | 417 kts | 102° |
| 2025-10-08 20:07 | 50.28384 | 29.82537 | 17581 ft | 404 kts | 103° |
| 2025-10-08 20:07 | 50.26657 | 29.95005 | 15771 ft | 375 kts | 103° |
| 2025-10-08 20:08 | 50.25586 | 30.02687 | 15311 ft | 344 kts | 103° |
| 2025-10-08 20:08 | 50.24619 | 30.09588 | 14618 ft | 311 kts | 103° |
| 2025-10-08 20:09 | 50.24160 | 30.12851 | 14046 ft | 305 kts | 103° |
| 2025-10-08 20:09 | 50.23258 | 30.19228 | 12755 ft | 296 kts | 102° |
| 2025-10-08 20:10 | 50.22379 | 30.25426 | 11318 ft | 294 kts | 102° |
| 2025-10-08 20:10 | 50.21463 | 30.31872 | 10012 ft | 309 kts | 102° |
| 2025-10-08 20:11 | 50.20530 | 30.38391 | 8850 ft | 304 kts | 101° |
| 2025-10-08 20:12 | 50.18741 | 30.50800 | 6613 ft | 275 kts | 99° |
| 2025-10-08 20:12 | 50.17927 | 30.56432 | 6012 ft | 259 kts | 99° |
| 2025-10-08 20:12 | 50.17534 | 30.59146 | 5457 ft | 253 kts | 101° |
| 2025-10-08 20:13 | 50.16791 | 30.64261 | 4825 ft | 235 kts | 101° |
| 2025-10-08 20:13 | 50.16432 | 30.66742 | 4530 ft | 234 kts | 102° |
| 2025-10-08 20:14 | 50.15473 | 30.73309 | 3760 ft | 232 kts | 102° |
| 2025-10-08 20:14 | 50.15116 | 30.75749 | 3472 ft | 230 kts | 103° |
| 2025-10-08 20:15 | 50.13946 | 30.83745 | 2956 ft | 213 kts | 100° |
| 2025-10-08 20:16 | 50.15213 | 30.88509 | 3059 ft | 173 kts | 34° |
| 2025-10-08 20:16 | 50.16299 | 30.89098 | 3045 ft | 161 kts | 17° |
| 2025-10-08 20:16 | 50.18370 | 30.89343 | 2976 ft | 142 kts | 11° |
| 2025-10-08 20:17 | 50.20354 | 30.89489 | 2851 ft | 144 kts | 11° |
| 2025-10-08 20:17 | 50.22335 | 30.89635 | 2476 ft | 139 kts | 11° |
| 2025-10-08 20:18 | 50.24237 | 30.89775 | 2098 ft | 134 kts | 10° |
| 2025-10-08 20:18 | 50.26079 | 30.89910 | 1738 ft | 131 kts | 10° |
| 2025-10-08 20:19 | 50.26986 | 30.89977 | 1546 ft | 130 kts | 11° |
| 2025-10-08 20:20 | 50.30616 | 30.90242 | 814 ft | 130 kts | 6° |
| 2025-10-08 20:20 | 50.31532 | 30.90305 | 647 ft | 134 kts | 6° |
| 2025-10-08 20:20 | 50.33303 | 30.90444 | 417 ft | 104 kts | 2° |
| 2025-10-08 20:21 | 50.34109 | 30.90503 | 425 ft | 25 kts | 2° |
| 2025-10-08 20:21 | 50.34409 | 30.90395 | 411 ft | 17 kts | 333° |
| 2025-10-08 20:22 | 50.34575 | 30.90262 | 411 ft | 7 kts | 333° |
| 2025-10-08 20:22 | 50.34682 | 30.90222 | 413 ft | 10 kts | 2° |
| 2025-10-08 20:23 | 50.34848 | 30.90232 | 412 ft | 11 kts | 355° |
| 2025-10-08 20:24 | 50.34969 | 30.90002 | 413 ft | 11 kts | 1° |
| 2025-10-08 20:24 | 50.35046 | 30.90007 | 416 ft | 12 kts | 3° |
| 2025-10-08 20:24 | 50.35198 | 30.90017 | 414 ft | 10 kts | 2° |
| 2025-10-08 20:25 | 50.35319 | 30.89939 | 413 ft | 3 kts | 274° |
| 2025-10-08 20:26 | 50.35320 | 30.89908 | 412 ft | 1 kts | 272° |